Time;durP1;ratioP1;P1;durP2;ratioP2;P2;SDS_P1;SDS_P2;PMS_P1;PMS_P2;Temp;Humidity;BMP_temperature;BMP_pressure;BME280_temperature;BME280_humidity;BME280_pressure;Samples;Min_cycle;Max_cycle;Signal;HPM_P1;HPM_P2
2022/09/26 00:00:35;;;;;;;5.23;2.97;;;;;;;17.43;100.00;100754.22;5002430;28;20288;-51
2022/09/26 00:03:01;;;;;;;8.37;2.40;;;;;;;17.23;100.00;100744.66;5018440;28;20319;-54
2022/09/26 00:05:26;;;;;;;6.00;2.93;;;;;;;17.51;100.00;100743.00;4999492;28;20322;-52
2022/09/26 00:07:52;;;;;;;5.90;3.30;;;;;;;17.63;100.00;100737.50;4986355;28;20284;-51
2022/09/26 00:10:17;;;;;;;4.03;2.40;;;;;;;17.32;100.00;100732.44;5022948;28;20269;-53
2022/09/26 00:12:44;;;;;;;4.90;3.33;;;;;;;17.31;100.00;100732.66;5004363;28;20062;-52
2022/09/26 00:15:10;;;;;;;9.50;2.90;;;;;;;17.11;100.00;100727.72;5014704;28;20099;-51
2022/09/26 00:17:36;;;;;;;7.78;2.92;;;;;;;17.38;100.00;100719.81;4994313;28;20291;-53
2022/09/26 00:20:03;;;;;;;6.53;2.67;;;;;;;17.27;100.00;100729.59;4975864;28;20084;-50
2022/09/26 00:22:28;;;;;;;;;;;;;;;17.69;100.00;100717.63;5005384;28;20038;-52
2022/09/26 00:24:54;;;;;;;8.90;3.80;;;;;;;17.14;100.00;100716.41;5003962;28;19914;-55
2022/09/26 00:27:20;;;;;;;9.18;3.50;;;;;;;16.94;100.00;100724.91;4989478;28;20054;-51
2022/09/26 00:29:46;;;;;;;8.63;3.00;;;;;;;17.38;100.00;100719.81;4998188;28;20033;-53
2022/09/26 00:32:12;;;;;;;7.53;3.45;;;;;;;17.21;100.00;100717.06;4980253;28;20310;-55
2022/09/26 00:34:38;;;;;;;5.78;3.25;;;;;;;17.37;100.00;100711.94;4996086;28;20038;-52
2022/09/26 00:37:03;;;;;;;12.05;3.17;;;;;;;17.14;100.00;100700.22;4991850;28;20057;-53
2022/09/26 00:39:28;;;;;;;9.80;3.92;;;;;;;17.08;100.00;100704.69;4991721;28;20046;-55
2022/09/26 00:41:54;;;;;;;7.90;3.90;;;;;;;17.36;100.00;100694.91;5010646;28;20094;-57
2022/09/26 00:44:35;;;;;;;5.68;3.38;;;;;;;17.15;100.00;100688.34;4987807;28;20039;-50
2022/09/26 00:47:01;;;;;;;10.97;3.90;;;;;;;17.37;100.00;100684.91;4998957;28;20039;-52
2022/09/26 00:49:37;;;;;;;8.98;3.45;;;;;;;17.57;100.00;100677.16;4975302;28;20270;-53
2022/09/26 00:52:10;;;;;;;6.23;3.53;;;;;;;17.89;100.00;100678.44;4975637;28;20039;-50
2022/09/26 00:54:38;;;;;;;6.60;3.40;;;;;;;17.53;100.00;100669.75;4992467;28;20276;-53
2022/09/26 00:57:09;;;;;;;6.90;3.90;;;;;;;17.82;100.00;100667.78;4988314;28;20341;-52
2022/09/26 00:59:42;;;;;;;8.43;3.40;;;;;;;17.36;100.00;100661.66;4983199;28;20281;-52
2022/09/26 01:02:08;;;;;;;10.60;4.63;;;;;;;17.76;100.00;100652.53;4968219;28;20262;-53
2022/09/26 01:04:36;;;;;;;;;;;;;;;17.69;100.00;100655.41;4974648;28;20274;-53
2022/09/26 01:07:07;;;;;;;9.90;3.17;;;;;;;17.16;100.00;100642.13;4977019;28;19915;-55
2022/09/26 01:09:33;;;;;;;12.33;3.57;;;;;;;17.31;100.00;100627.25;4955309;28;20296;-53
2022/09/26 01:12:02;;;;;;;11.23;3.40;;;;;;;17.72;100.00;100624.34;4972310;28;20262;-51
2022/09/26 01:14:28;;;;;;;10.97;4.13;;;;;;;17.45;100.00;100627.75;4981057;28;20065;-54
2022/09/26 01:16:54;;;;;;;9.68;4.20;;;;;;;17.24;100.00;100613.09;4976568;28;20306;-54
2022/09/26 01:19:29;;;;;;;14.30;5.00;;;;;;;17.09;100.00;100605.56;4967604;28;20050;-50
2022/09/26 01:22:28;;;;;;;9.27;3.63;;;;;;;16.82;100.00;100598.84;4974109;28;20281;-55
2022/09/26 01:25:21;;;;;;;8.53;3.83;;;;;;;16.74;100.00;100591.97;4995276;28;20271;-50
2022/09/26 01:28:06;;;;;;;7.50;3.23;;;;;;;16.93;100.00;100578.25;4994897;28;20277;-50
2022/09/26 01:31:16;;;;;;;9.77;3.80;;;;;;;16.98;100.00;100569.44;4984496;28;20273;-51
2022/09/26 01:34:06;;;;;;;6.60;2.80;;;;;;;17.09;100.00;100568.53;4976625;28;20285;-50
2022/09/26 01:36:41;;;;;;;4.47;2.47;;;;;;;16.97;100.00;100562.38;4984084;28;20277;-52
2022/09/26 01:39:50;;;;;;;10.50;3.40;;;;;;;16.77;100.00;100552.88;4972800;28;20297;-56
2022/09/26 01:42:39;;;;;;;6.63;3.00;;;;;;;17.04;100.00;100541.44;4988276;28;20272;-52
2022/09/26 01:45:21;;;;;;;13.67;3.97;;;;;;;17.09;100.00;100529.91;4971925;28;20301;-52
2022/09/26 01:48:02;;;;;;;8.23;3.37;;;;;;;17.24;100.00;100532.03;4978814;28;20300;-54
2022/09/26 01:50:36;;;;;;;11.97;3.43;;;;;;;16.94;100.00;100531.28;5020006;28;20271;-50
2022/09/26 01:53:11;;;;;;;10.73;4.13;;;;;;;16.96;100.00;100525.63;5062663;28;20273;-54
2022/09/26 01:55:41;;;;;;;11.67;3.97;;;;;;;16.72;100.00;100523.06;5051508;28;20290;-56
2022/09/26 01:58:26;;;;;;;8.77;4.07;;;;;;;16.91;100.00;100518.25;5068332;28;20274;-55
2022/09/26 02:00:56;;;;;;;10.70;3.77;;;;;;;16.99;100.00;100517.88;5051961;28;20334;-54
2022/09/26 02:03:27;;;;;;;9.67;4.70;;;;;;;16.75;100.00;100515.31;5052478;28;20276;-51
2022/09/26 02:05:57;;;;;;;8.50;4.00;;;;;;;17.14;100.00;100498.38;5058963;28;20350;-52
2022/09/26 02:08:29;;;;;;;8.97;3.77;;;;;;;16.57;100.00;100507.44;5064713;28;20263;-54
2022/09/26 02:11:03;;;;;;;8.97;3.50;;;;;;;16.72;100.00;100494.19;5062707;28;20279;-54
2022/09/26 02:13:36;;;;;;;15.93;4.07;;;;;;;16.70;100.00;100495.50;5061839;28;20286;-52
2022/09/26 02:16:09;;;;;;;11.47;4.10;;;;;;;16.56;100.00;100492.28;5061559;28;20358;-51
2022/09/26 02:18:42;;;;;;;12.83;4.07;;;;;;;16.70;100.00;100485.53;5059688;28;20277;-56
2022/09/26 02:21:26;;;;;;;12.80;4.70;;;;;;;16.70;100.00;100466.63;5058658;28;20347;-54
2022/09/26 02:23:53;;;;;;;10.60;4.17;;;;;;;16.90;100.00;100476.91;5059681;28;20291;-54
2022/09/26 02:26:22;;;;;;;11.67;4.33;;;;;;;16.60;100.00;100469.13;5052207;28;20269;-52
2022/09/26 02:28:48;;;;;;;9.67;3.83;;;;;;;17.11;100.00;100473.75;5060308;28;20274;-54
2022/09/26 02:31:20;;;;;;;13.13;4.30;;;;;;;17.18;100.00;100461.72;5054905;28;20255;-52
2022/09/26 02:33:51;;;;;;;7.47;4.27;;;;;;;16.69;100.00;100456.06;5052774;28;20271;-52
2022/09/26 02:36:19;;;;;;;7.80;3.73;;;;;;;17.11;100.00;100455.63;5059401;28;20283;-50
2022/09/26 02:38:45;;;;;;;9.73;4.27;;;;;;;17.19;100.00;100451.69;5059679;28;20286;-55
2022/09/26 02:41:44;;;;;;;11.63;3.90;;;;;;;17.22;100.00;100443.09;5047551;28;20309;-54
2022/09/26 02:44:54;;;;;;;8.70;4.70;;;;;;;17.51;100.00;100445.63;5060013;28;20274;-51
2022/09/26 02:47:53;;;;;;;9.73;3.93;;;;;;;16.66;100.00;100443.88;5056750;28;20274;-54
2022/09/26 02:50:47;;;;;;;8.50;3.80;;;;;;;16.54;100.00;100440.44;5012325;28;20270;-50
2022/09/26 02:53:16;;;;;;;10.43;5.23;;;;;;;16.51;100.00;100432.84;4988681;28;20266;-51
2022/09/26 02:56:25;;;;;;;10.53;4.47;;;;;;;16.53;100.00;100433.41;4976458;28;20283;-53
2022/09/26 02:59:19;;;;;;;8.77;3.73;;;;;;;16.60;100.00;100423.25;4983673;28;20288;-55
2022/09/26 03:01:54;;;;;;;8.67;4.60;;;;;;;16.48;100.00;100415.25;4975449;28;20301;-54
2022/09/26 03:04:41;;;;;;;7.07;3.90;;;;;;;16.76;100.00;100416.22;4992023;28;20265;-52
2022/09/26 03:07:13;;;;;;;15.13;4.97;;;;;;;16.37;100.00;100405.34;4978915;28;20293;-54
2022/09/26 03:09:41;;;;;;;13.57;4.63;;;;;;;16.57;100.00;100399.44;4971653;28;20296;-53
2022/09/26 03:12:08;;;;;;;11.17;4.50;;;;;;;16.64;100.00;100408.22;4972853;28;20273;-51
2022/09/26 03:14:36;;;;;;;10.27;4.63;;;;;;;16.96;100.00;100396.78;4983110;28;20281;-55
2022/09/26 03:17:05;;;;;;;14.60;4.63;;;;;;;16.17;100.00;100388.59;4980588;28;20286;-53
2022/09/26 03:19:38;;;;;;;13.03;4.70;;;;;;;16.63;100.00;100385.00;4983112;28;20283;-52
2022/09/26 03:22:05;;;;;;;12.70;4.67;;;;;;;16.48;100.00;100394.47;4966297;28;20285;-53
2022/09/26 03:24:31;;;;;;;11.87;4.97;;;;;;;16.82;100.00;100384.69;4973663;28;20285;-54
2022/09/26 03:26:58;;;;;;;18.37;4.87;;;;;;;16.46;100.00;100380.41;4978500;28;21875;-51
2022/09/26 03:29:24;;;;;;;10.37;4.07;;;;;;;16.46;100.00;100377.72;4976125;28;20301;-53
2022/09/26 03:31:50;;;;;;;11.75;4.57;;;;;;;16.20;100.00;100377.31;4972941;28;20261;-50
2022/09/26 03:34:16;;;;;;;;;;;;;;;16.43;100.00;100362.03;4972283;28;20039;-53
2022/09/26 03:36:44;;;;;;;10.40;4.20;;;;;;;16.01;100.00;100365.09;4992486;28;19937;-52
2022/09/26 03:39:11;;;;;;;9.77;3.90;;;;;;;15.96;100.00;100354.25;4987026;28;20046;-54
2022/09/26 03:41:47;;;;;;;11.27;3.33;;;;;;;16.22;100.00;100354.66;4990435;28;20278;-54
2022/09/26 03:44:31;;;;;;;6.60;3.57;;;;;;;16.00;100.00;100355.38;4969240;28;20273;-53
2022/09/26 03:47:02;;;;;;;5.70;2.97;;;;;;;15.82;100.00;100343.72;4975748;28;20273;-52
2022/09/26 03:49:28;;;;;;;11.13;3.63;;;;;;;16.01;100.00;100347.03;4980176;28;20284;-52
2022/09/26 03:51:55;;;;;;;7.47;3.25;;;;;;;16.03;100.00;100334.16;4998171;28;20037;-54
2022/09/26 03:54:20;;;;;;;6.53;3.00;;;;;;;15.76;100.00;100328.53;4978765;28;20050;-53
2022/09/26 03:56:47;;;;;;;7.83;3.13;;;;;;;15.71;100.00;100317.66;4982327;28;20049;-54
2022/09/26 03:59:12;;;;;;;6.32;2.60;;;;;;;15.93;100.00;100319.66;5012425;28;20289;-49
2022/09/26 04:01:39;;;;;;;9.98;3.25;;;;;;;16.13;100.00;100317.28;5003721;28;20041;-53
2022/09/26 04:04:05;;;;;;;10.00;3.50;;;;;;;16.37;100.00;100302.81;5005429;28;20035;-51
2022/09/26 04:06:31;;;;;;;9.63;3.60;;;;;;;16.29;100.00;100287.84;5011998;28;20028;-54
2022/09/26 04:09:00;;;;;;;9.10;3.40;;;;;;;16.16;100.00;100289.84;4984891;28;20035;-52
2022/09/26 04:11:27;;;;;;;8.93;3.50;;;;;;;15.86;100.00;100285.53;4997587;28;20272;-52
2022/09/26 04:13:54;;;;;;;8.93;3.73;;;;;;;16.13;100.00;100279.53;4986518;28;20348;-51
2022/09/26 04:16:22;;;;;;;13.47;3.20;;;;;;;16.14;100.00;100264.16;5007596;28;20295;-53
2022/09/26 04:18:58;;;;;;;7.93;2.70;;;;;;;16.24;100.00;100263.50;5010539;28;20285;-55
2022/09/26 04:21:28;;;;;;;12.67;2.80;;;;;;;16.46;100.00;100272.47;5021064;28;20272;-55
2022/09/26 04:23:54;;;;;;;14.07;3.00;;;;;;;16.16;100.00;100262.88;5000135;28;20299;-56
2022/09/26 04:26:22;;;;;;;;;;;;;;;16.37;100.00;100260.44;5000312;28;20288;-54
2022/09/26 04:28:52;;;;;;;7.55;2.10;;;;;;;16.28;100.00;100248.44;4998066;28;19914;-55
2022/09/26 04:31:20;;;;;;;7.33;2.47;;;;;;;15.94;100.00;100235.03;5001020;28;20026;-50
2022/09/26 04:33:56;;;;;;;8.40;2.90;;;;;;;15.86;100.00;100231.63;4973106;28;20280;-56
2022/09/26 04:36:22;;;;;;;5.50;3.00;;;;;;;15.86;100.00;100231.63;4997241;28;20341;-50
2022/09/26 04:38:48;;;;;;;7.32;3.53;;;;;;;15.85;100.00;100218.41;4995861;28;20093;-52
2022/09/26 04:41:18;;;;;;;7.10;3.60;;;;;;;16.15;100.00;100212.69;5003494;28;20035;-55
2022/09/26 04:43:46;;;;;;;13.30;3.67;;;;;;;16.14;100.00;100200.22;4991886;28;20265;-50
2022/09/26 04:46:20;;;;;;;7.00;2.90;;;;;;;15.97;100.00;100194.06;5016809;28;20261;-55
2022/09/26 04:48:48;;;;;;;9.47;3.17;;;;;;;15.68;100.00;100186.03;5006345;28;20268;-53
2022/09/26 04:51:18;;;;;;;9.20;2.80;;;;;;;15.86;100.00;100185.78;4983413;28;20293;-52
2022/09/26 04:53:46;;;;;;;9.43;2.87;;;;;;;15.85;100.00;100186.84;4979598;28;20277;-52
2022/09/26 04:56:19;;;;;;;8.90;3.47;;;;;;;15.93;100.00;100187.53;4970018;29;20272;-54
2022/09/26 04:58:45;;;;;;;4.93;2.40;;;;;;;16.13;100.00;100171.63;4995681;28;20385;-53
2022/09/26 05:01:14;;;;;;;5.57;2.50;;;;;;;15.86;100.00;100180.38;4982958;28;20270;-52
2022/09/26 05:04:09;;;;;;;9.43;3.40;;;;;;;15.77;100.00;100168.41;4967198;28;20057;-56
2022/09/26 05:06:35;;;;;;;;;;;;;;;15.94;100.00;100162.22;4969617;28;20035;-53
2022/09/26 05:09:03;;;;;;;;;;;;;;;15.61;100.00;100192.41;4970602;28;19964;-52
2022/09/26 05:11:47;;;;;;;8.07;2.60;;;;;;;15.73;100.00;100156.50;4995925;28;19941;-54
2022/09/26 05:14:13;;;;;;;7.15;3.03;;;;;;;16.02;100.00;100153.69;4973137;28;20284;-51
2022/09/26 05:16:38;;;;;;;9.90;2.95;;;;;;;15.93;100.00;100149.78;4985526;28;20066;-55
2022/09/26 05:19:07;;;;;;;5.83;3.07;;;;;;;16.02;100.00;100157.19;4992179;28;20036;-50
2022/09/26 05:21:38;;;;;;;12.47;3.47;;;;;;;16.08;100.00;100150.00;4995349;28;20275;-54
2022/09/26 05:26:51;;;;;;;7.50;2.63;;;;;;;16.52;100.00;100140.28;4973504;28;20055;-52
2022/09/26 05:29:19;;;;;;;6.80;2.83;;;;;;;16.35;100.00;100141.16;4974545;28;20297;-50
2022/09/26 05:31:53;;;;;;;8.07;3.33;;;;;;;16.04;100.00;100136.22;4983301;28;20261;-50
2022/09/26 05:34:23;;;;;;;12.83;4.13;;;;;;;15.97;100.00;100167.09;4987401;28;20705;-49
2022/09/26 05:36:51;;;;;;;6.20;3.20;;;;;;;15.70;100.00;100130.03;4980071;28;20300;-51
2022/09/26 05:42:04;;;;;;;8.10;3.27;;;;;;;15.81;100.00;100121.00;4972056;28;20307;-51
2022/09/26 05:44:30;;;;;;;13.80;3.57;;;;;;;15.65;100.00;100127.22;4973141;28;20269;-55
2022/09/26 05:46:57;;;;;;;7.70;3.87;;;;;;;15.67;100.00;100120.53;4974132;28;20273;-51
2022/09/26 05:49:24;;;;;;;10.90;3.70;;;;;;;15.65;100.00;100116.44;4997308;28;20266;-54
2022/09/26 05:51:52;;;;;;;11.63;3.80;;;;;;;15.30;100.00;100129.13;4993819;28;20283;-52
2022/09/26 05:54:18;;;;;;;6.53;4.30;;;;;;;15.39;100.00;100113.38;4995895;28;20331;-54
2022/09/26 05:56:44;;;;;;;17.58;4.03;;;;;;;15.39;100.00;100092.66;4991756;28;20035;-54
2022/09/26 05:59:35;;;;;;;10.00;4.47;;;;;;;15.15;100.00;100090.13;5013806;28;20031;-53
2022/09/26 06:02:19;;;;;;;8.97;3.63;;;;;;;15.87;100.00;100089.56;4990191;28;20287;-51
2022/09/26 06:04:58;;;;;;;7.37;3.60;;;;;;;15.87;100.00;100084.16;4986219;28;20351;-56
2022/09/26 06:07:51;;;;;;;7.57;3.67;;;;;;;15.75;100.00;100086.97;4972820;28;20276;-53
2022/09/26 06:10:37;;;;;;;9.63;3.22;;;;;;;16.05;100.00;100072.28;5008217;28;20272;-56
2022/09/26 06:13:04;;;;;;;11.83;3.17;;;;;;;16.03;100.00;100069.84;5020596;28;20045;-55
2022/09/26 06:15:37;;;;;;;9.60;3.20;;;;;;;15.93;100.00;100074.28;5000059;28;20281;-54
2022/09/26 06:18:03;;;;;;;8.80;3.77;;;;;;;15.90;100.00;100060.22;4989588;28;20289;-56
2022/09/26 06:20:33;;;;;;;10.33;4.17;;;;;;;16.29;100.00;100045.03;5012853;28;20035;-52
2022/09/26 06:23:00;;;;;;;9.50;3.70;;;;;;;16.25;100.00;100041.22;5005513;28;20293;-53
2022/09/26 06:25:27;;;;;;;7.17;4.07;;;;;;;15.86;100.00;100056.38;4996684;28;20281;-54
2022/09/26 06:27:54;;;;;;;9.97;3.80;;;;;;;15.90;100.00;100018.97;4999885;28;20309;-55
2022/09/26 06:30:20;;;;;;;12.53;3.50;;;;;;;16.06;100.00;100022.66;4997855;28;20086;-56
2022/09/26 06:32:46;;;;;;;10.93;3.73;;;;;;;15.75;100.00;100019.56;5007931;28;20272;-56
2022/09/26 06:35:38;;;;;;;11.43;3.83;;;;;;;15.84;100.00;100001.88;5007248;28;20281;-56
2022/09/26 06:38:10;;;;;;;6.87;3.30;;;;;;;15.93;100.00;99996.91;4993064;28;20265;-54
2022/09/26 06:40:36;;;;;;;9.65;3.75;;;;;;;15.95;100.00;99993.97;5007522;28;20534;-55
2022/09/26 06:43:01;;;;;;;14.03;3.63;;;;;;;15.94;100.00;99985.06;5005180;28;20071;-50
2022/09/26 06:45:50;;;;;;;10.43;3.77;;;;;;;15.91;100.00;99986.38;4989709;28;20076;-54
2022/09/26 06:48:27;;;;;;;8.70;3.20;;;;;;;15.65;100.00;99971.75;5013264;28;20309;-51
2022/09/26 06:51:06;;;;;;;7.13;3.73;;;;;;;15.85;100.00;99963.06;5014868;28;20345;-53
2022/09/26 06:53:33;;;;;;;13.80;3.90;;;;;;;15.97;100.00;99956.78;5023739;28;20288;-55
2022/09/26 06:56:00;;;;;;;11.63;3.80;;;;;;;16.23;100.00;99965.13;5009286;28;20288;-54
2022/09/26 06:58:26;;;;;;;10.63;4.03;;;;;;;16.11;100.00;99957.19;5005203;28;20303;-52
2022/09/26 07:00:57;;;;;;;14.47;4.80;;;;;;;16.12;100.00;99940.72;4979403;28;20281;-54
2022/09/26 07:03:43;;;;;;;10.40;4.40;;;;;;;16.11;100.00;99939.09;4971197;28;20288;-53
2022/09/26 07:06:26;;;;;;;15.03;4.80;;;;;;;15.87;100.00;99942.06;4987702;28;20281;-52
2022/09/26 07:08:53;;;;;;;11.20;4.53;;;;;;;16.02;100.00;99941.44;5001350;28;20285;-52
2022/09/26 07:11:29;;;;;;;10.20;4.30;;;;;;;16.11;100.00;99931.03;4994473;28;20265;-53
2022/09/26 07:13:56;;;;;;;13.05;4.18;;;;;;;15.73;100.00;99930.06;5005883;28;20274;-55
2022/09/26 07:16:25;;;;;;;9.33;3.60;;;;;;;15.61;100.00;99927.50;4999960;28;20062;-54
2022/09/26 07:18:58;;;;;;;12.07;4.00;;;;;;;15.90;100.00;99920.03;5003722;28;20282;-53
2022/09/26 07:21:45;;;;;;;10.70;4.43;;;;;;;16.10;100.00;99913.22;4996842;28;20333;-51
2022/09/26 07:24:48;;;;;;;9.60;4.10;;;;;;;16.54;100.00;99908.72;4994700;28;20300;-52
2022/09/26 07:27:16;;;;;;;8.47;4.43;;;;;;;16.37;100.00;99925.84;5019505;28;20298;-53
2022/09/26 07:29:46;;;;;;;8.73;4.10;;;;;;;16.33;100.00;99908.56;4998040;28;20323;-51
2022/09/26 07:32:14;;;;;;;8.13;3.60;;;;;;;16.61;100.00;99909.34;5004449;28;20273;-52
2022/09/26 07:35:02;;;;;;;7.60;3.13;;;;;;;16.73;100.00;99907.25;5001001;28;20291;-51
2022/09/26 07:37:29;;;;;;;14.27;4.60;;;;;;;16.81;100.00;99907.84;4992449;28;20287;-51
2022/09/26 07:39:55;;;;;;;6.07;3.37;;;;;;;16.85;100.00;99909.75;5007924;28;20296;-53
2022/09/26 07:42:21;;;;;;;9.75;3.10;;;;;;;16.61;100.00;99912.84;4988022;28;20380;-55
2022/09/26 07:44:47;;;;;;;6.53;3.08;;;;;;;16.83;100.00;99897.59;5025600;28;20061;-53
2022/09/26 07:50:16;;;;;;;12.27;3.20;;;;;;;16.74;100.00;99890.00;4988607;28;20118;-52
2022/09/26 07:52:56;;;;;;;10.17;4.20;;;;;;;16.54;100.00;99890.66;4959152;28;20281;-55
2022/09/26 07:55:26;;;;;;;12.32;3.47;;;;;;;16.57;100.00;99883.91;4972709;28;20339;-52
2022/09/26 07:58:11;;;;;;;8.60;3.03;;;;;;;16.55;100.00;99883.38;4968815;28;20047;-51
2022/09/26 08:00:48;;;;;;;13.77;3.17;;;;;;;16.58;100.00;99877.44;4979028;28;20278;-53
2022/09/26 08:03:41;;;;;;;7.87;3.10;;;;;;;16.82;100.00;99875.19;4970453;28;20045;-51
2022/09/26 08:06:19;;;;;;;6.90;2.37;;;;;;;16.73;100.00;99882.16;4983697;28;20295;-54
2022/09/26 08:08:46;;;;;;;12.20;2.60;;;;;;;16.66;100.00;99874.28;4973218;28;20282;-54
2022/09/26 08:11:32;;;;;;;;;;;;;;;16.71;100.00;99890.50;4971447;28;20279;-52
2022/09/26 08:14:17;;;;;;;11.20;3.30;;;;;;;16.68;100.00;99880.22;4973848;28;19941;-57
2022/09/26 08:16:55;;;;;;;9.90;3.20;;;;;;;16.92;100.00;99874.44;4972115;28;20285;-56
2022/09/26 08:19:24;;;;;;;10.57;2.67;;;;;;;17.28;100.00;99863.81;4981887;28;20289;-55
2022/09/26 08:21:50;;;;;;;6.40;2.73;;;;;;;17.01;100.00;99867.47;4984556;28;20043;-57
2022/09/26 08:24:17;;;;;;;7.77;3.70;;;;;;;16.90;100.00;99873.88;4977909;28;20286;-54
2022/09/26 08:27:02;;;;;;;8.73;3.50;;;;;;;16.68;100.00;99866.75;4983545;28;20295;-53
2022/09/26 08:29:31;;;;;;;8.70;3.57;;;;;;;17.15;100.00;99856.22;4953999;28;20314;-55
2022/09/26 08:32:01;;;;;;;7.82;3.08;;;;;;;16.70;100.00;99848.38;4977225;28;20265;-55
2022/09/26 08:34:26;;;;;;;4.63;2.60;;;;;;;16.66;100.00;99855.38;4984524;28;20042;-53
2022/09/26 08:37:19;;;;;;;10.60;3.20;;;;;;;16.48;100.00;99838.53;4977837;28;20304;-54
2022/09/26 08:40:14;;;;;;;11.40;3.10;;;;;;;16.90;100.00;99847.69;4978115;28;20311;-53
2022/09/26 08:43:28;;;;;;;7.63;2.50;;;;;;;16.95;100.00;99829.88;4989949;28;20288;-56
2022/09/26 08:47:01;;;;;;;7.47;3.63;;;;;;;17.03;100.00;99824.81;4991067;28;20316;-54
2022/09/26 08:50:13;;;;;;;8.18;2.85;;;;;;;17.20;100.00;99829.22;4984423;28;20353;-53
2022/09/26 08:52:48;;;;;;;10.65;3.70;;;;;;;17.13;100.00;99828.66;4971790;28;20058;-53
2022/09/26 08:55:19;;;;;;;12.73;3.33;;;;;;;17.26;100.00;99819.25;5019229;28;20034;-52
2022/09/26 08:57:51;;;;;;;8.63;2.13;;;;;;;16.87;100.00;99812.31;5002108;28;20360;-53
2022/09/26 09:00:20;;;;;;;9.87;2.50;;;;;;;17.26;100.00;99816.53;4990440;28;20284;-54
2022/09/26 09:03:23;;;;;;;6.90;2.63;;;;;;;17.16;100.00;99811.91;5000209;28;20287;-52
2022/09/26 09:05:52;;;;;;;6.67;2.37;;;;;;;17.25;100.00;99817.63;4988573;28;20366;-56
2022/09/26 09:08:22;;;;;;;9.50;2.77;;;;;;;17.02;100.00;99808.91;4991401;28;20272;-53
2022/09/26 09:11:41;;;;;;;5.93;2.00;;;;;;;16.69;100.00;99813.53;4991124;28;20273;-51
2022/09/26 09:14:33;;;;;;;8.93;2.50;;;;;;;17.31;100.00;99806.56;5000242;28;20304;-53
2022/09/26 09:17:25;;;;;;;11.00;2.73;;;;;;;16.63;100.00;99794.63;4993083;28;20269;-55
2022/09/26 09:20:56;;;;;;;7.40;2.57;;;;;;;16.53;100.00;99775.69;5011469;28;20291;-55
2022/09/26 09:24:11;;;;;;;8.93;3.13;;;;;;;17.24;100.00;99784.38;5011076;28;20282;-55
2022/09/26 09:27:03;;;;;;;7.97;2.53;;;;;;;17.25;100.00;99791.41;4995321;28;20273;-53
2022/09/26 09:29:42;;;;;;;10.57;3.03;;;;;;;17.00;100.00;99814.53;4989023;28;20337;-50
2022/09/26 09:32:52;;;;;;;7.03;2.67;;;;;;;17.41;100.00;99789.53;5004710;28;20310;-52
2022/09/26 09:35:50;;;;;;;13.20;2.87;;;;;;;17.07;100.00;99768.38;5024558;28;20264;-56
2022/09/26 09:38:37;;;;;;;10.90;2.87;;;;;;;16.84;100.00;99754.22;4986511;28;20268;-52
2022/09/26 09:41:37;;;;;;;14.57;3.63;;;;;;;16.81;100.00;99753.94;4961097;28;20285;-52
2022/09/26 09:44:09;;;;;;;11.20;3.00;;;;;;;16.48;100.00;99762.16;5008512;28;20276;-55
2022/09/26 09:46:41;;;;;;;11.63;4.37;;;;;;;16.58;100.00;99746.03;4996801;28;20276;-53
2022/09/26 09:49:07;;;;;;;8.30;3.40;;;;;;;16.27;100.00;99747.72;4992328;28;20278;-53
2022/09/26 09:51:40;;;;;;;8.88;3.95;;;;;;;16.12;100.00;99748.44;4999843;28;20376;-55
2022/09/26 09:54:27;;;;;;;10.90;4.00;;;;;;;15.86;100.00;99734.75;5013224;28;20033;-52
2022/09/26 09:57:15;;;;;;;9.93;4.13;;;;;;;16.34;100.00;99743.75;5010793;28;20277;-58
2022/09/26 10:00:07;;;;;;;10.33;4.70;;;;;;;16.38;100.00;99735.13;5018971;28;20289;-53
2022/09/26 10:03:10;;;;;;;10.10;4.80;;;;;;;16.25;100.00;99728.31;4993097;28;20272;-55
2022/09/26 10:05:43;;;;;;;15.40;5.00;;;;;;;16.42;100.00;99734.34;5025198;28;20277;-55
2022/09/26 10:08:18;;;;;;;11.60;4.70;;;;;;;16.61;100.00;99734.69;5000214;28;20269;-53
2022/09/26 10:11:11;;;;;;;9.47;4.63;;;;;;;16.71;100.00;99733.94;5023371;28;20224;-55
2022/09/26 10:14:02;;;;;;;14.13;5.73;;;;;;;16.54;100.00;99727.91;5013652;28;20353;-58
2022/09/26 10:17:13;;;;;;;10.60;4.30;;;;;;;16.34;100.00;99726.72;5012983;28;20340;-57
2022/09/26 10:19:47;;;;;;;16.83;5.73;;;;;;;16.54;100.00;99717.13;5007206;28;20295;-58
2022/09/26 10:22:24;;;;;;;11.82;4.88;;;;;;;16.60;100.00;99705.25;5009201;28;20311;-55
2022/09/26 10:25:18;;;;;;;13.27;4.33;;;;;;;16.36;100.00;99716.47;5009665;28;20129;-56
2022/09/26 10:27:49;;;;;;;10.37;4.67;;;;;;;16.51;100.00;99718.47;5005803;28;20276;-56
2022/09/26 10:30:18;;;;;;;24.17;6.57;;;;;;;16.65;100.00;99693.69;5016385;28;20277;-56
2022/09/26 10:32:47;;;;;;;22.73;6.50;;;;;;;16.38;100.00;99697.34;5005201;28;20287;-54
2022/09/26 10:35:44;;;;;;;20.23;6.77;;;;;;;16.10;100.00;99705.53;5014640;28;20288;-57
2022/09/26 10:38:28;;;;;;;26.00;6.80;;;;;;;16.71;100.00;99712.34;5010821;28;20268;-56
2022/09/26 10:41:21;;;;;;;18.57;5.73;;;;;;;15.76;100.00;99725.50;5007713;28;20350;-57
2022/09/26 10:43:53;;;;;;;12.57;5.47;;;;;;;16.27;100.00;99689.22;5006472;28;20502;-58
2022/09/26 10:46:44;;;;;;;20.30;7.97;;;;;;;16.29;100.00;99687.06;4995179;28;20280;-59
2022/09/26 10:49:50;;;;;;;16.40;5.83;;;;;;;16.33;100.00;99684.63;4954794;28;20383;-55
2022/09/26 10:52:48;;;;;;;14.47;6.90;;;;;;;16.20;100.00;99675.13;5007476;28;20267;-59
2022/09/26 10:55:23;;;;;;;12.13;7.20;;;;;;;16.88;100.00;99689.72;5006672;28;20265;-56
2022/09/26 10:58:04;;;;;;;15.37;8.30;;;;;;;16.43;100.00;99684.69;5002677;28;20267;-56
2022/09/26 11:00:44;;;;;;;18.50;8.23;;;;;;;16.48;100.00;99682.03;4989327;28;20280;-59
2022/09/26 11:03:42;;;;;;;18.17;7.97;;;;;;;16.68;100.00;99680.47;5016625;28;20261;-59
2022/09/26 11:06:27;;;;;;;21.27;9.65;;;;;;;16.40;100.00;99685.22;5015764;28;20266;-57
2022/09/26 11:09:01;;;;;;;21.73;10.97;;;;;;;16.40;100.00;99682.53;5010365;28;20567;-57
2022/09/26 11:11:46;;;;;;;21.80;9.98;;;;;;;16.80;100.00;99677.53;5009240;28;20297;-55
2022/09/26 11:14:22;;;;;;;20.17;9.70;;;;;;;16.51;100.00;99680.69;4997808;28;20054;-58
2022/09/26 11:16:56;;;;;;;30.63;9.53;;;;;;;16.59;100.00;99672.06;4999304;28;20276;-54
2022/09/26 11:19:42;;;;;;;;;;;;;;;16.97;100.00;99676.53;4999728;28;20285;-55
2022/09/26 11:22:13;;;;;;;15.50;7.10;;;;;;;16.80;100.00;99671.31;5019927;28;19944;-56
2022/09/26 11:24:53;;;;;;;14.47;8.90;;;;;;;16.35;100.00;99669.00;5003018;28;20276;-58
2022/09/26 11:28:01;;;;;;;11.07;6.60;;;;;;;16.64;100.00;99657.78;5015363;28;20320;-56
2022/09/26 11:30:47;;;;;;;14.27;6.43;;;;;;;16.37;100.00;99657.94;5029237;28;20285;-56
2022/09/26 11:33:18;;;;;;;18.20;8.07;;;;;;;16.85;100.00;99652.47;4998500;28;20351;-57
2022/09/26 11:36:16;;;;;;;14.10;8.00;;;;;;;16.66;100.00;99652.13;5007814;28;20335;-56
2022/09/26 11:38:54;;;;;;;14.50;7.00;;;;;;;16.64;100.00;99652.41;5010465;28;20487;-53
2022/09/26 11:41:35;;;;;;;9.43;6.27;;;;;;;16.67;100.00;99662.66;5007880;28;20280;-55
2022/09/26 11:44:22;;;;;;;11.13;6.70;;;;;;;16.56;100.00;99642.09;5026871;28;20050;-54
2022/09/26 11:47:35;;;;;;;13.03;5.80;;;;;;;16.31;100.00;99630.13;5007787;28;20318;-57
2022/09/26 11:50:22;;;;;;;13.60;6.10;;;;;;;16.23;100.00;99653.03;5009487;28;20285;-52
2022/09/26 11:54:05;;;;;;;15.30;6.30;;;;;;;16.38;100.00;99630.72;4976492;28;20350;-57
2022/09/26 11:56:47;;;;;;;14.67;5.77;;;;;;;16.46;100.00;99646.41;4989912;28;20492;-56
2022/09/26 11:59:46;;;;;;;11.10;5.97;;;;;;;16.26;100.00;99630.94;4971890;28;20322;-58
2022/09/26 12:02:30;;;;;;;7.77;4.60;;;;;;;16.40;100.00;99658.25;4968721;28;20273;-54
2022/09/26 12:05:23;;;;;;;10.20;5.53;;;;;;;16.91;100.00;99637.88;4978793;28;20289;-57
2022/09/26 12:07:58;;;;;;;11.97;5.60;;;;;;;17.03;100.00;99633.06;5002106;28;20274;-54
2022/09/26 12:10:32;;;;;;;12.60;5.50;;;;;;;16.83;100.00;99638.38;4980591;28;20348;-53
2022/09/26 12:13:17;;;;;;;10.77;5.97;;;;;;;16.33;100.00;99641.47;4990772;28;20285;-57